Time;durP1;ratioP1;P1;durP2;ratioP2;P2;SDS_P1;SDS_P2;PMS_P1;PMS_P2;Temp;Humidity;BMP_temperature;BMP_pressure;BME280_temperature;BME280_humidity;BME280_pressure;Samples;Min_cycle;Max_cycle;Signal;HPM_P1;HPM_P2
2019/04/04 00:00:25;;;;;;;4.3;4;;;;;;;3.47;100;943.3245;;;;
2019/04/04 00:02:40;;;;;;;4;3.7;;;;;;;3.59;100;943.2623;;;;
2019/04/04 00:05:05;;;;;;;4.4;4;;;;;;;3.68;100;943.2024;;;;
2019/04/04 00:07:30;;;;;;;4.5;4.1;;;;;;;3.66;100;943.1583;;;;
2019/04/04 00:09:55;;;;;;;4.3;3.9;;;;;;;3.69;100;943.0997;;;;
2019/04/04 00:12:20;;;;;;;4;3.7;;;;;;;3.72;100;943.1219;;;;
2019/04/04 00:14:49;;;;;;;4.2;3.9;;;;;;;3.73;100;943.0541;;;;
2019/04/04 00:17:17;;;;;;;4.7;4.3;;;;;;;3.77;100;942.991;;;;
2019/04/04 00:19:42;;;;;;;4.8;4.4;;;;;;;3.75;100;942.9302;;;;
2019/04/04 00:22:07;;;;;;;4.5;4.1;;;;;;;3.75;100;942.9039;;;;
2019/04/04 00:24:36;;;;;;;4.5;4.1;;;;;;;3.74;100;942.8425;;;;
2019/04/04 00:27:01;;;;;;;4.8;4.3;;;;;;;3.74;100;942.7873;;;;
2019/04/04 00:29:26;;;;;;;4.5;4.1;;;;;;;3.65;100;942.8347;;;;
2019/04/04 00:31:52;;;;;;;4.9;4.4;;;;;;;3.57;100;942.8092;;;;
2019/04/04 00:34:18;;;;;;;5;4.6;;;;;;;3.58;100;942.7966;;;;
2019/04/04 00:36:43;;;;;;;4.9;4.4;;;;;;;3.54;100;942.8253;;;;
2019/04/04 00:39:08;;;;;;;5.9;4.8;;;;;;;3.54;100;942.7369;;;;
2019/04/04 00:41:33;;;;;;;5.1;4.6;;;;;;;3.52;100;942.6167;;;;
2019/04/04 00:43:58;;;;;;;5;4.6;;;;;;;3.62;100;942.6358;;;;
2019/04/04 00:46:23;;;;;;;4.9;4.5;;;;;;;3.68;100;942.5914;;;;
2019/04/04 00:48:48;;;;;;;4.9;4.5;;;;;;;3.63;100;942.5427;;;;
2019/04/04 00:51:14;;;;;;;5.6;5.1;;;;;;;3.63;100;942.4291;;;;
2019/04/04 00:53:39;;;;;;;5.5;5;;;;;;;3.71;100;942.29;;;;
2019/04/04 00:56:05;;;;;;;5;4.6;;;;;;;3.77;100;942.2538;;;;
2019/04/04 00:58:30;;;;;;;5.6;5.1;;;;;;;3.87;100;942.315;;;;
2019/04/04 01:01:15;;;;;;;5.5;5.1;;;;;;;3.85;100;942.368;;;;
2019/04/04 01:03:40;;;;;;;5.7;5.2;;;;;;;3.96;100;942.3433;;;;
2019/04/04 01:06:16;;;;;;;5.9;5.4;;;;;;;3.96;100;942.1791;;;;
2019/04/04 01:08:42;;;;;;;5.9;5.3;;;;;;;4;100;942.1035;;;;
2019/04/04 01:11:09;;;;;;;6.2;5.7;;;;;;;4;100;942.0402;;;;
2019/04/04 01:13:35;;;;;;;7.5;6.8;;;;;;;4.05;100;942.009;;;;
2019/04/04 01:16:01;;;;;;;6.5;5.9;;;;;;;4;100;941.9439;;;;
2019/04/04 01:18:26;;;;;;;6.4;5.9;;;;;;;3.97;100;941.8578;;;;
2019/04/04 01:20:51;;;;;;;6.3;5.8;;;;;;;3.97;100;941.8666;;;;
2019/04/04 01:23:16;;;;;;;7;6.3;;;;;;;3.93;100;941.8209;;;;
2019/04/04 01:25:41;;;;;;;6.4;5.9;;;;;;;3.96;100;941.8672;;;;
2019/04/04 01:28:07;;;;;;;6.5;5.9;;;;;;;4.06;100;941.7856;;;;
2019/04/04 01:30:32;;;;;;;6.7;6.1;;;;;;;4.05;100;941.7361;;;;
2019/04/04 01:32:58;;;;;;;7;6.4;;;;;;;4.11;100;941.7714;;;;
2019/04/04 01:35:23;;;;;;;6.7;6.1;;;;;;;4.1;100;941.7605;;;;
2019/04/04 01:37:48;;;;;;;6.1;5.5;;;;;;;4.09;100;941.7233;;;;
2019/04/04 01:40:13;;;;;;;5.8;5.3;;;;;;;4.08;100;941.6403;;;;
2019/04/04 01:42:38;;;;;;;6.2;5.7;;;;;;;4.12;100;941.5559;;;;
2019/04/04 01:45:03;;;;;;;6.4;5.8;;;;;;;4.08;100;941.5132;;;;
2019/04/04 01:47:28;;;;;;;6.7;6.1;;;;;;;4.03;100;941.4723;;;;
2019/04/04 01:49:53;;;;;;;7.3;6.6;;;;;;;4.07;100;941.4266;;;;
2019/04/04 01:52:19;;;;;;;7.3;6.7;;;;;;;4.06;100;941.4817;;;;
2019/04/04 01:54:45;;;;;;;7.1;6.5;;;;;;;4.08;100;941.5684;;;;
2019/04/04 01:57:17;;;;;;;7.7;7;;;;;;;4.1;100;941.5583;;;;
2019/04/04 01:59:49;;;;;;;7.8;7.1;;;;;;;4.1;100;941.5457;;;;
2019/04/04 02:02:16;;;;;;;7.5;6.8;;;;;;;4.09;100;941.428;;;;
2019/04/04 02:04:56;;;;;;;7.5;6.8;;;;;;;4.14;100;941.4018;;;;
2019/04/04 02:07:36;;;;;;;8.7;7.9;;;;;;;4.15;100;941.3336;;;;
2019/04/04 02:10:01;;;;;;;8.1;7.4;;;;;;;4.19;100;941.3376;;;;
2019/04/04 02:12:27;;;;;;;8.4;7.6;;;;;;;4.19;100;941.1947;;;;
2019/04/04 02:14:52;;;;;;;8.8;8;;;;;;;4.2;100;941.1092;;;;
2019/04/04 02:17:17;;;;;;;9.9;8.4;;;;;;;4.24;100;941.1002;;;;
2019/04/04 02:19:42;;;;;;;10.6;9.4;;;;;;;4.23;100;941.0927;;;;
2019/04/04 02:22:07;;;;;;;9.7;8.7;;;;;;;4.23;100;941.0594;;;;
2019/04/04 02:24:32;;;;;;;10.8;9.7;;;;;;;4.21;100;940.985;;;;
2019/04/04 02:26:57;;;;;;;12.9;10.9;;;;;;;4.17;100;940.9473;;;;
2019/04/04 02:29:24;;;;;;;13.5;11.7;;;;;;;4.19;100;940.9788;;;;
2019/04/04 02:31:52;;;;;;;13;11.6;;;;;;;4.24;100;940.8049;;;;
2019/04/04 02:34:14;;;;;;;14.7;12.9;;;;;;;4.19;100;940.7048;;;;
2019/04/04 02:36:39;;;;;;;14.9;12.5;;;;;;;4.18;100;940.7658;;;;
2019/04/04 02:39:05;;;;;;;13.9;12.4;;;;;;;4.2;100;940.6836;;;;
2019/04/04 02:41:32;;;;;;;15.6;13.3;;;;;;;4.15;100;940.5037;;;;
2019/04/04 02:43:57;;;;;;;14.3;12.5;;;;;;;4.14;100;940.4958;;;;
2019/04/04 02:46:22;;;;;;;14.9;12.7;;;;;;;4.15;100;940.5416;;;;
2019/04/04 02:48:49;;;;;;;13.5;12.1;;;;;;;4.14;100;940.568;;;;
2019/04/04 02:51:14;;;;;;;14.3;12.5;;;;;;;4.15;100;940.5377;;;;
2019/04/04 02:53:39;;;;;;;13.2;11.8;;;;;;;4.2;100;940.633;;;;
2019/04/04 02:56:08;;;;;;;15.2;11.9;;;;;;;4.21;100;940.6489;;;;
2019/04/04 02:58:35;;;;;;;14.9;13.2;;;;;;;4.15;100;940.5748;;;;
2019/04/04 03:01:01;;;;;;;14.9;13;;;;;;;4.19;100;940.6503;;;;
2019/04/04 03:03:27;;;;;;;15.7;14;;;;;;;4.22;100;940.5586;;;;
2019/04/04 03:05:52;;;;;;;15.8;13.7;;;;;;;4.29;100;940.5258;;;;
2019/04/04 03:08:19;;;;;;;16.1;13.5;;;;;;;4.21;100;940.3795;;;;
2019/04/04 03:10:44;;;;;;;16;14;;;;;;;4.16;100;940.3467;;;;
2019/04/04 03:13:11;;;;;;;15.7;13;;;;;;;4.14;100;940.2773;;;;
2019/04/04 03:15:36;;;;;;;16;13.4;;;;;;;4.13;100;940.2654;;;;
2019/04/04 03:18:01;;;;;;;18.5;14.5;;;;;;;4.17;100;940.2026;;;;
2019/04/04 03:20:26;;;;;;;17.3;15;;;;;;;4.02;100;940.2827;;;;
2019/04/04 03:22:53;;;;;;;17.9;14.1;;;;;;;4.08;100;940.2127;;;;
2019/04/04 03:25:27;;;;;;;18.2;14.8;;;;;;;4.14;100;940.0712;;;;
2019/04/04 03:27:53;;;;;;;15.9;13.9;;;;;;;4.2;100;940.0644;;;;
2019/04/04 03:30:19;;;;;;;17.4;14.7;;;;;;;4.21;100;940.0385;;;;
2019/04/04 03:32:44;;;;;;;18.6;15.6;;;;;;;4.1;100;940.0208;;;;
2019/04/04 03:35:12;;;;;;;17.9;15.1;;;;;;;4.19;100;939.9856;;;;
2019/04/04 03:37:46;;;;;;;17.6;15.1;;;;;;;4.2;100;939.837;;;;
2019/04/04 03:40:08;;;;;;;18;14.7;;;;;;;4.23;100;939.8677;;;;
2019/04/04 03:42:33;;;;;;;17.2;15.3;;;;;;;4.24;100;939.8365;;;;
2019/04/04 03:45:09;;;;;;;19.3;16;;;;;;;4.19;100;939.8088;;;;
2019/04/04 03:47:34;;;;;;;18.8;16.2;;;;;;;4.22;100;939.7752;;;;
2019/04/04 03:50:00;;;;;;;17.6;14.8;;;;;;;4.14;100;939.8059;;;;
2019/04/04 03:52:25;;;;;;;18.4;15.4;;;;;;;4.16;100;939.6312;;;;
2019/04/04 03:54:50;;;;;;;19.9;16.7;;;;;;;4.13;100;939.6464;;;;
2019/04/04 03:57:15;;;;;;;18.3;15.5;;;;;;;4.13;100;939.6511;;;;
2019/04/04 03:59:40;;;;;;;19.6;15.8;;;;;;;4.16;100;939.5847;;;;
2019/04/04 04:02:32;;;;;;;19.4;15.9;;;;;;;4.09;100;939.3191;;;;
2019/04/04 04:04:57;;;;;;;18.5;15.4;;;;;;;4.1;100;939.3047;;;;
2019/04/04 04:07:22;;;;;;;18.2;14.9;;;;;;;4.1;100;939.397;;;;
2019/04/04 04:09:48;;;;;;;17.5;14.2;;;;;;;4.09;100;939.5164;;;;
2019/04/04 04:12:12;;;;;;;17.9;15;;;;;;;4.06;100;939.4606;;;;
2019/04/04 04:14:40;;;;;;;18.4;15;;;;;;;4.12;100;939.341;;;;
2019/04/04 04:17:05;;;;;;;17.7;15.7;;;;;;;4.08;100;939.4082;;;;
2019/04/04 04:19:31;;;;;;;17.8;14.9;;;;;;;4.07;100;939.3003;;;;
2019/04/04 04:21:56;;;;;;;19.7;16.1;;;;;;;4.06;100;939.1953;;;;
2019/04/04 04:24:21;;;;;;;18.8;15.5;;;;;;;4.07;100;939.3256;;;;
2019/04/04 04:26:46;;;;;;;18.4;15.3;;;;;;;4.03;100;939.3123;;;;
2019/04/04 04:29:11;;;;;;;18.4;16.1;;;;;;;3.99;100;939.2329;;;;
2019/04/04 04:31:36;;;;;;;19.1;15.6;;;;;;;4.06;100;939.1069;;;;
2019/04/04 04:34:05;;;;;;;19.8;15.7;;;;;;;4.07;100;939.0603;;;;
2019/04/04 04:36:30;;;;;;;18;15.8;;;;;;;4.11;100;939.1097;;;;
2019/04/04 04:38:56;;;;;;;20.5;16;;;;;;;4.11;100;939.0598;;;;
2019/04/04 04:41:29;;;;;;;20.7;16.2;;;;;;;4.03;100;939.014;;;;
2019/04/04 04:43:54;;;;;;;20;16.2;;;;;;;4.04;100;939.0084;;;;
2019/04/04 04:46:19;;;;;;;20.2;15.9;;;;;;;4.05;100;939.1844;;;;
2019/04/04 04:48:48;;;;;;;19.9;16.3;;;;;;;3.96;100;938.9583;;;;
2019/04/04 04:51:10;;;;;;;20.7;17;;;;;;;4.02;100;939.108;;;;
2019/04/04 04:53:38;;;;;;;19.9;16.6;;;;;;;3.87;100;938.9133;;;;
2019/04/04 04:56:03;;;;;;;21.2;17.8;;;;;;;3.87;100;938.9093;;;;
2019/04/04 04:58:29;;;;;;;22.4;17.8;;;;;;;3.83;100;938.8505;;;;
2019/04/04 05:00:54;;;;;;;22.8;18.6;;;;;;;3.95;100;938.6989;;;;
2019/04/04 05:03:19;;;;;;;23.2;18.6;;;;;;;3.93;100;938.7433;;;;
2019/04/04 05:05:45;;;;;;;22.7;18.8;;;;;;;3.92;100;938.5924;;;;
2019/04/04 05:08:10;;;;;;;22.6;18;;;;;;;3.96;100;938.6465;;;;
2019/04/04 05:10:35;;;;;;;24.6;20.1;;;;;;;3.93;100;938.6083;;;;
2019/04/04 05:13:02;;;;;;;27.3;21.9;;;;;;;3.84;100;938.5514;;;;
2019/04/04 05:15:27;;;;;;;25.6;20.8;;;;;;;3.95;100;938.4755;;;;
2019/04/04 05:17:56;;;;;;;28.8;22.5;;;;;;;3.87;100;938.3839;;;;
2019/04/04 05:20:21;;;;;;;29.6;22.7;;;;;;;3.85;100;938.4067;;;;
2019/04/04 05:22:50;;;;;;;28.7;22.4;;;;;;;3.77;100;938.3862;;;;
2019/04/04 05:25:16;;;;;;;29.6;23.4;;;;;;;3.75;100;938.1908;;;;
2019/04/04 05:27:41;;;;;;;31.3;24.6;;;;;;;3.8;100;938.1766;;;;
2019/04/04 05:30:07;;;;;;;31.9;23.7;;;;;;;3.88;100;938.0585;;;;
2019/04/04 05:32:32;;;;;;;29.6;23;;;;;;;3.9;100;938.0559;;;;
2019/04/04 05:34:58;;;;;;;31;23.7;;;;;;;3.85;100;938.0232;;;;
2019/04/04 05:37:22;;;;;;;29.7;22.6;;;;;;;3.84;100;938.0453;;;;
2019/04/04 05:39:47;;;;;;;33.1;23.7;;;;;;;3.92;100;938.0154;;;;
2019/04/04 05:42:12;;;;;;;34.9;24.3;;;;;;;3.88;100;937.9654;;;;
2019/04/04 05:44:37;;;;;;;41.1;26.6;;;;;;;3.89;100;937.9304;;;;
2019/04/04 05:47:02;;;;;;;36.7;26.5;;;;;;;3.85;100;938.0153;;;;
2019/04/04 05:49:28;;;;;;;40;27.6;;;;;;;3.89;100;937.8762;;;;
2019/04/04 05:51:54;;;;;;;36.8;25.9;;;;;;;3.96;100;937.9277;;;;
2019/04/04 05:54:19;;;;;;;41.4;27.5;;;;;;;3.94;100;937.7574;;;;
2019/04/04 05:56:52;;;;;;;39.9;27.9;;;;;;;3.83;100;937.7441;;;;
2019/04/04 05:59:22;;;;;;;43.4;28.2;;;;;;;3.85;100;937.5986;;;;
2019/04/04 06:01:47;;;;;;;40.6;28.9;;;;;;;3.95;100;937.5322;;;;
2019/04/04 06:04:12;;;;;;;43.3;27.8;;;;;;;3.93;100;937.59;;;;
2019/04/04 06:06:37;;;;;;;41.7;27.9;;;;;;;3.94;100;937.4922;;;;
2019/04/04 06:09:08;;;;;;;37.9;26.6;;;;;;;4.11;100;937.4556;;;;
2019/04/04 06:11:37;;;;;;;43.7;27.5;;;;;;;4.14;100;937.5016;;;;
2019/04/04 06:14:18;;;;;;;36.8;26.6;;;;;;;4.06;100;937.5871;;;;
2019/04/04 06:16:44;;;;;;;37;26.1;;;;;;;4.13;100;937.6211;;;;
2019/04/04 06:19:09;;;;;;;36.9;26;;;;;;;4.05;100;937.5803;;;;
2019/04/04 06:21:36;;;;;;;33.6;25.3;;;;;;;4.13;100;937.6591;;;;
2019/04/04 06:24:01;;;;;;;35.6;24.7;;;;;;;4.11;100;937.5945;;;;
2019/04/04 06:26:26;;;;;;;38.4;26.4;;;;;;;4.04;100;937.4216;;;;
2019/04/04 06:28:51;;;;;;;36.2;25.5;;;;;;;4.09;100;937.5332;;;;
2019/04/04 06:31:16;;;;;;;37.5;24.7;;;;;;;4.1;100;937.3137;;;;
2019/04/04 06:33:41;;;;;;;37.1;25;;;;;;;4.28;100;937.2664;;;;
2019/04/04 06:36:07;;;;;;;38.8;25.5;;;;;;;4.22;100;937.3453;;;;
2019/04/04 06:38:32;;;;;;;35.2;24.7;;;;;;;4.21;100;937.1945;;;;
2019/04/04 06:40:57;;;;;;;35.8;24.5;;;;;;;4.44;100;937.2478;;;;
2019/04/04 06:43:23;;;;;;;34.5;23.4;;;;;;;4.64;100;937.2377;;;;
2019/04/04 06:45:55;;;;;;;36.4;24.9;;;;;;;4.71;100;937.2675;;;;
2019/04/04 06:48:20;;;;;;;31.5;22.6;;;;;;;4.75;100;937.2076;;;;
2019/04/04 06:50:49;;;;;;;31.3;23.5;;;;;;;4.83;100;937.2659;;;;
2019/04/04 06:53:12;;;;;;;32.4;22.8;;;;;;;4.83;100;937.2241;;;;
2019/04/04 06:55:40;;;;;;;29.1;21.4;;;;;;;4.96;100;937.2206;;;;
2019/04/04 06:58:09;;;;;;;32.7;23.7;;;;;;;4.63;100;937.2092;;;;
2019/04/04 07:00:39;;;;;;;31.1;22.2;;;;;;;4.81;100;937.3445;;;;
2019/04/04 07:03:05;;;;;;;31.3;22.6;;;;;;;5.04;100;937.1611;;;;
2019/04/04 07:05:36;;;;;;;30.4;22.4;;;;;;;4.97;100;937.312;;;;
2019/04/04 07:08:01;;;;;;;31.8;22.3;;;;;;;4.95;100;937.1972;;;;
2019/04/04 07:10:29;;;;;;;36.5;23.8;;;;;;;4.85;100;937.3819;;;;
2019/04/04 07:12:57;;;;;;;33;23.3;;;;;;;5.02;100;937.1803;;;;
2019/04/04 07:15:22;;;;;;;30.8;23.1;;;;;;;4.98;100;937.3405;;;;
2019/04/04 07:17:49;;;;;;;29.8;22.3;;;;;;;5.25;100;937.3506;;;;
2019/04/04 07:20:14;;;;;;;28;21;;;;;;;5.38;100;937.4153;;;;
2019/04/04 07:22:44;;;;;;;27.9;21.4;;;;;;;5.62;100;937.4414;;;;
2019/04/04 07:25:09;;;;;;;27.5;20.9;;;;;;;5.79;100;937.5344;;;;
2019/04/04 07:27:37;;;;;;;27.6;21.5;;;;;;;5.77;100;937.4105;;;;
2019/04/04 07:30:03;;;;;;;27;21.4;;;;;;;5.83;100;937.3309;;;;
2019/04/04 07:32:28;;;;;;;27.3;22.2;;;;;;;6;100;937.3696;;;;
2019/04/04 07:34:53;;;;;;;25.7;20.8;;;;;;;6;100;937.3997;;;;
2019/04/04 07:37:18;;;;;;;26.4;20.8;;;;;;;6.16;100;937.4981;;;;
2019/04/04 07:39:43;;;;;;;24;20.1;;;;;;;6.48;98.09277;937.454;;;;
2019/04/04 07:42:09;;;;;;;25.1;20.6;;;;;;;6.43;97.55176;937.4557;;;;
2019/04/04 07:44:34;;;;;;;25;20.2;;;;;;;6.6;96.57715;937.4478;;;;
2019/04/04 07:46:59;;;;;;;23.6;18.8;;;;;;;6.86;93.78516;937.4322;;;;
2019/04/04 07:49:24;;;;;;;24.7;20.5;;;;;;;6.59;96.02539;937.4272;;;;
2019/04/04 07:51:50;;;;;;;24.6;19.7;;;;;;;6.88;94.22559;937.3619;;;;
2019/04/04 07:54:34;;;;;;;23;19.3;;;;;;;7.08;92.07129;937.4678;;;;
2019/04/04 07:57:01;;;;;;;23.4;19.3;;;;;;;7.37;90.43164;937.3833;;;;
2019/04/04 07:59:42;;;;;;;22.3;18.6;;;;;;;7.69;87.91602;937.4111;;;;
2019/04/04 08:02:14;;;;;;;22.3;19.5;;;;;;;7.9;86.05762;937.4977;;;;
2019/04/04 08:04:40;;;;;;;22;19.2;;;;;;;8.16;84.15039;937.6287;;;;
2019/04/04 08:07:04;;;;;;;22.1;19.7;;;;;;;8.43;82.43652;937.6743;;;;
2019/04/04 08:09:30;;;;;;;22.4;18.3;;;;;;;8.74;80.30176;937.6286;;;;
2019/04/04 08:11:54;;;;;;;21.9;18.7;;;;;;;8.97;78.93457;937.5513;;;;
2019/04/04 08:14:22;;;;;;;24.3;20.5;;;;;;;8.92;78.62402;937.6347;;;;
2019/04/04 08:16:46;;;;;;;23.6;19.9;;;;;;;8.66;80.11133;937.7374;;;;
2019/04/04 08:19:15;;;;;;;22.7;19.4;;;;;;;8.75;80.73047;937.7125;;;;
2019/04/04 08:21:44;;;;;;;26.2;21.2;;;;;;;8.8;78.54395;937.8671;;;;
2019/04/04 08:24:09;;;;;;;25.3;19.5;;;;;;;8.82;78.93945;937.8984;;;;
2019/04/04 08:26:36;;;;;;;23.6;19.5;;;;;;;9.14;77.60156;937.8254;;;;
2019/04/04 08:29:01;;;;;;;22.8;20.1;;;;;;;9.49;76.32129;937.9481;;;;
2019/04/04 08:31:32;;;;;;;22.7;19.4;;;;;;;9.97;73.58984;937.8539;;;;
2019/04/04 08:33:57;;;;;;;25.9;20;;;;;;;10.17;71.6543;937.9153;;;;
2019/04/04 08:36:22;;;;;;;24.8;19.4;;;;;;;10.49;70.38574;937.8711;;;;
2019/04/04 08:38:48;;;;;;;22.9;19.4;;;;;;;10.47;69.59375;937.8694;;;;
2019/04/04 08:41:23;;;;;;;22.7;20.1;;;;;;;10.32;70.31348;937.9451;;;;
2019/04/04 08:43:50;;;;;;;24.6;19.5;;;;;;;9.99;72.05371;938.0038;;;;
2019/04/04 08:46:18;;;;;;;24.8;20.3;;;;;;;10.08;71.67578;938.0627;;;;
2019/04/04 08:48:42;;;;;;;27;20.4;;;;;;;9.74;72.86914;938.1142;;;;
2019/04/04 08:51:11;;;;;;;27.2;20.8;;;;;;;9.26;74.78906;938.2051;;;;
2019/04/04 08:53:36;;;;;;;22.7;19.9;;;;;;;9.09;75.47559;938.3208;;;;
2019/04/04 08:56:07;;;;;;;25.9;21.3;;;;;;;9.09;76.42383;938.4354;;;;
2019/04/04 08:58:31;;;;;;;23.5;20.3;;;;;;;8.8;77.52734;938.3851;;;;
2019/04/04 09:00:56;;;;;;;23.4;19.7;;;;;;;8.95;77.32324;938.3908;;;;
2019/04/04 09:03:23;;;;;;;24.4;19.9;;;;;;;9.31;75.83887;938.355;;;;
2019/04/04 09:05:48;;;;;;;25.3;20.3;;;;;;;9.44;74.85547;938.3416;;;;
2019/04/04 09:08:18;;;;;;;25.1;21.5;;;;;;;9.18;75.81543;938.4781;;;;
2019/04/04 09:10:47;;;;;;;26.1;21.4;;;;;;;9.09;76.48145;938.4227;;;;
2019/04/04 09:13:13;;;;;;;23.6;20.1;;;;;;;9.37;75.46777;938.4908;;;;
2019/04/04 09:15:39;;;;;;;24;19.8;;;;;;;9.59;74.18457;938.5046;;;;
2019/04/04 09:18:03;;;;;;;22.9;20.4;;;;;;;9.38;74.32324;938.6135;;;;
2019/04/04 09:20:42;;;;;;;25.1;21.4;;;;;;;9.98;71.51953;938.617;;;;
2019/04/04 09:23:06;;;;;;;23.8;20.6;;;;;;;10.13;71.3125;938.5455;;;;
2019/04/04 09:25:31;;;;;;;26.1;21;;;;;;;10.65;68.9502;938.6484;;;;
2019/04/04 09:28:05;;;;;;;26.9;21;;;;;;;10.73;68.59277;938.5983;;;;
2019/04/04 09:30:30;;;;;;;27.1;23.3;;;;;;;10.39;69.18652;938.5101;;;;
2019/04/04 09:32:58;;;;;;;25.6;20.8;;;;;;;10.47;69.39648;938.6225;;;;
2019/04/04 09:35:25;;;;;;;26.4;21;;;;;;;10.57;68.11523;938.6205;;;;
2019/04/04 09:37:50;;;;;;;25;22;;;;;;;10.5;68.35742;938.4995;;;;
2019/04/04 09:40:15;;;;;;;25.5;20.8;;;;;;;10.73;67.33789;938.5689;;;;
2019/04/04 09:42:40;;;;;;;27.8;22.3;;;;;;;10.73;66.89746;938.5649;;;;
2019/04/04 09:45:05;;;;;;;25.6;21.4;;;;;;;11.03;65.68945;938.6631;;;;
2019/04/04 09:47:30;;;;;;;24.1;21.5;;;;;;;10.91;66.04395;938.6711;;;;
2019/04/04 09:49:55;;;;;;;22.6;19.8;;;;;;;11.1;64.84082;938.6702;;;;
2019/04/04 09:52:21;;;;;;;24.7;21.4;;;;;;;11.25;64.57324;938.7258;;;;
2019/04/04 09:54:51;;;;;;;23.9;21.1;;;;;;;11.17;64.73633;938.6685;;;;
2019/04/04 09:57:17;;;;;;;25.1;21;;;;;;;11.39;63.9082;938.6553;;;;
2019/04/04 09:59:42;;;;;;;26;21.5;;;;;;;11.42;63.30859;938.5613;;;;
2019/04/04 10:02:23;;;;;;;25.7;22.1;;;;;;;10.99;64.96387;938.473;;;;
2019/04/04 10:04:52;;;;;;;23.8;20.7;;;;;;;10.78;66.40625;938.4899;;;;
2019/04/04 10:07:17;;;;;;;24.7;21.8;;;;;;;10.64;66.11914;938.5599;;;;
2019/04/04 10:09:47;;;;;;;25.3;22;;;;;;;10.1;68.67676;938.5966;;;;
2019/04/04 10:12:13;;;;;;;26.2;22.2;;;;;;;10.02;69.90527;938.5136;;;;
2019/04/04 10:14:54;;;;;;;24.7;20.1;;;;;;;10.33;67.83203;938.6295;;;;
2019/04/04 10:17:19;;;;;;;26.8;21.2;;;;;;;10.34;67.91504;938.7766;;;;
2019/04/04 10:19:46;;;;;;;23.5;19.6;;;;;;;10.66;66.27246;938.7405;;;;
2019/04/04 10:22:11;;;;;;;25.3;20.2;;;;;;;10.61;66.37988;938.8206;;;;
2019/04/04 10:24:46;;;;;;;25.2;21;;;;;;;10.54;66.86816;938.8544;;;;
2019/04/04 10:27:11;;;;;;;26.1;21.9;;;;;;;10.24;67.80762;938.8923;;;;
2019/04/04 10:29:37;;;;;;;25.3;21.2;;;;;;;10.07;69.06641;938.9196;;;;
2019/04/04 10:32:07;;;;;;;26;21.1;;;;;;;10.21;68.63672;938.9769;;;;
2019/04/04 10:34:36;;;;;;;22.9;20;;;;;;;10.36;67.66211;939.0123;;;;
2019/04/04 10:37:04;;;;;;;23.7;20.3;;;;;;;10.87;65.93262;939.0775;;;;
2019/04/04 10:39:29;;;;;;;24.2;19.6;;;;;;;11.64;63.16504;938.905;;;;
2019/04/04 10:41:54;;;;;;;24.7;19.7;;;;;;;12.24;59.42285;938.8912;;;;
2019/04/04 10:44:21;;;;;;;22.5;19.7;;;;;;;12.1;59.11133;938.8184;;;;
2019/04/04 10:46:46;;;;;;;22.4;19.3;;;;;;;12.37;58.15918;938.6547;;;;
2019/04/04 10:49:11;;;;;;;19.8;17;;;;;;;13.28;56.0752;938.6827;;;;
2019/04/04 10:51:38;;;;;;;18.9;16.9;;;;;;;14.37;52.16602;938.723;;;;
2019/04/04 10:54:06;;;;;;;19.4;16.6;;;;;;;14.92;50.47461;938.6799;;;;
2019/04/04 10:56:35;;;;;;;18.5;15.7;;;;;;;17.09;44.62598;938.6241;;;;
2019/04/04 10:59:00;;;;;;;18.6;16.5;;;;;;;17.41;43.88086;938.5147;;;;
2019/04/04 11:01:25;;;;;;;16.9;15.1;;;;;;;17.83;41.00977;938.4699;;;;
2019/04/04 11:03:50;;;;;;;17.7;15.9;;;;;;;17.31;41.67969;938.4534;;;;
2019/04/04 11:06:16;;;;;;;17.6;15.8;;;;;;;17.22;41.71875;938.4427;;;;
2019/04/04 11:08:41;;;;;;;17.9;16.1;;;;;;;16.95;42.24512;938.3756;;;;
2019/04/04 11:11:06;;;;;;;17.4;15.2;;;;;;;16.69;43.75;938.3069;;;;
2019/04/04 11:13:31;;;;;;;16.6;14.9;;;;;;;17.18;42.31445;938.2051;;;;
2019/04/04 11:15:56;;;;;;;16.4;14.4;;;;;;;18.76;39.14551;938.2392;;;;
2019/04/04 11:18:21;;;;;;;16.8;14.8;;;;;;;20.23;35.97949;938.323;;;;
2019/04/04 11:20:46;;;;;;;16.6;15;;;;;;;20.99;35.02051;938.1464;;;;
2019/04/04 11:23:11;;;;;;;15.9;14.3;;;;;;;22.27;31.97656;938.1826;;;;
2019/04/04 11:25:43;;;;;;;15.4;13.9;;;;;;;23;31.28906;938.1928;;;;
2019/04/04 11:28:11;;;;;;;16.6;15.1;;;;;;;22.32;31.44336;938.3081;;;;
2019/04/04 11:30:36;;;;;;;16.7;15.1;;;;;;;22.69;30.80176;938.343;;;;
2019/04/04 11:33:07;;;;;;;17.9;16.1;;;;;;;21.74;32.25879;938.3562;;;;
2019/04/04 11:35:32;;;;;;;17.8;16;;;;;;;18.74;37.61914;938.3801;;;;
2019/04/04 11:38:06;;;;;;;16.3;14.7;;;;;;;20.29;35.37988;938.312;;;;
2019/04/04 11:40:35;;;;;;;15.9;14.4;;;;;;;21.28;33.33105;938.2708;;;;
2019/04/04 11:43:00;;;;;;;16.6;14.9;;;;;;;20.91;33.99219;938.325;;;;
2019/04/04 11:45:25;;;;;;;15.9;14.4;;;;;;;21.1;33.37695;938.2949;;;;
2019/04/04 11:47:54;;;;;;;16.4;14.8;;;;;;;18.32;38.39844;938.3311;;;;
2019/04/04 11:50:19;;;;;;;17.7;15.9;;;;;;;17.2;41.06836;938.2787;;;;
2019/04/04 11:52:44;;;;;;;16.7;15.1;;;;;;;19.01;37.48926;938.394;;;;
2019/04/04 11:55:09;;;;;;;17.1;15.4;;;;;;;19.92;35.75391;938.3505;;;;
2019/04/04 11:57:34;;;;;;;17.6;15.9;;;;;;;17.81;40.46484;938.4917;;;;
2019/04/04 11:59:59;;;;;;;17;15.3;;;;;;;17.19;41.67969;938.5821;;;;
2019/04/04 12:02:25;;;;;;;17.2;15.5;;;;;;;17.77;40.7207;938.6313;;;;
2019/04/04 12:04:50;;;;;;;16.3;14.8;;;;;;;19.72;37.05176;938.5551;;;;
2019/04/04 12:07:15;;;;;;;17.9;16.1;;;;;;;18.64;38.03613;938.5964;;;;
2019/04/04 12:09:40;;;;;;;16.3;14.8;;;;;;;18.98;37.75781;938.6024;;;;
2019/04/04 12:12:05;;;;;;;16.7;15;;;;;;;19.75;36.21289;938.7403;;;;
2019/04/04 12:14:30;;;;;;;16.3;14.8;;;;;;;18.35;39.09766;938.7783;;;;
2019/04/04 12:16:56;;;;;;;16;14.5;;;;;;;18.86;37.85449;938.7514;;;;
2019/04/04 12:19:21;;;;;;;17.1;15.5;;;;;;;18.3;38.46777;938.6763;;;;
2019/04/04 12:21:46;;;;;;;16;14.5;;;;;;;18.92;37.71777;938.6726;;;;
2019/04/04 12:24:11;;;;;;;16.2;14.5;;;;;;;17.64;40.83789;938.7095;;;;
2019/04/04 12:26:36;;;;;;;16.7;14.8;;;;;;;17.56;41.43164;938.8049;;;;
2019/04/04 12:29:01;;;;;;;16.6;15;;;;;;;18.42;39.15137;938.9646;;;;
2019/04/04 12:31:26;;;;;;;16.4;14.7;;;;;;;16.91;42.3125;938.9715;;;;
2019/04/04 12:33:51;;;;;;;16.7;13.2;;;;;;;17.43;41.51367;938.9291;;;;
2019/04/04 12:36:16;;;;;;;16.5;14.9;;;;;;;18.2;39.34375;939.0677;;;;
2019/04/04 12:38:41;;;;;;;16.4;14.8;;;;;;;16.96;42.04688;939.0195;;;;
2019/04/04 12:41:07;;;;;;;15.5;13.8;;;;;;;17.52;41.02734;938.9531;;;;
2019/04/04 12:43:32;;;;;;;16.2;14.5;;;;;;;16.2;45.13477;939.0569;;;;
2019/04/04 12:45:57;;;;;;;16.8;15;;;;;;;15.68;47.05273;939.0076;;;;
2019/04/04 12:48:22;;;;;;;16;13.8;;;;;;;15.41;48.81836;939.2293;;;;
2019/04/04 12:50:47;;;;;;;18.4;14.2;;;;;;;15.41;49.07617;939.2639;;;;
2019/04/04 12:53:12;;;;;;;15.2;13.6;;;;;;;14.87;50.64355;939.4391;;;;
2019/04/04 12:55:37;;;;;;;16.5;13.2;;;;;;;14.49;52.30859;939.5061;;;;
2019/04/04 12:58:02;;;;;;;19.2;14;;;;;;;14.26;52.41113;939.4969;;;;
2019/04/04 13:00:27;;;;;;;14.7;13.1;;;;;;;14.14;52.77051;939.5112;;;;
2019/04/04 13:02:53;;;;;;;16.2;14;;;;;;;13.8;53.97852;939.465;;;;
2019/04/04 13:05:18;;;;;;;18.6;13.2;;;;;;;14.05;53.44922;939.6831;;;;
2019/04/04 13:07:43;;;;;;;15;13.1;;;;;;;13.55;53.80859;939.6002;;;;
2019/04/04 13:10:08;;;;;;;16.7;13;;;;;;;13.35;54.34375;939.7332;;;;
2019/04/04 13:12:41;;;;;;;16;12.3;;;;;;;13.01;55.5498;939.7137;;;;
2019/04/04 13:15:16;;;;;;;16.4;13.4;;;;;;;12.71;56.41895;939.7759;;;;
2019/04/04 13:17:43;;;;;;;15;12.6;;;;;;;12.48;56.97266;939.783;;;;
2019/04/04 13:20:06;;;;;;;14.9;11.8;;;;;;;12.68;56.47461;939.8906;;;;
2019/04/04 13:22:32;;;;;;;13.4;11.2;;;;;;;12.47;57.46289;940.0059;;;;
2019/04/04 13:24:57;;;;;;;13.8;11.8;;;;;;;12.59;56.87207;939.9423;;;;
2019/04/04 13:27:21;;;;;;;15.7;10.9;;;;;;;12.14;58.59375;939.9679;;;;
2019/04/04 13:29:47;;;;;;;13.2;10.9;;;;;;;12.18;58.57617;940.0432;;;;
2019/04/04 13:32:12;;;;;;;16.2;11;;;;;;;11.86;59.7666;940.2213;;;;
2019/04/04 13:34:37;;;;;;;13.3;10.3;;;;;;;11.56;60.78125;940.2979;;;;
2019/04/04 13:37:02;;;;;;;11.1;9.6;;;;;;;11.29;60.73242;940.3477;;;;
2019/04/04 13:39:27;;;;;;;13.4;9.9;;;;;;;10.9;62.76758;940.3342;;;;
2019/04/04 13:41:52;;;;;;;11;9.6;;;;;;;10.64;63.42578;940.3525;;;;
2019/04/04 13:44:20;;;;;;;11.5;9.1;;;;;;;10.38;65.13867;940.4423;;;;
2019/04/04 13:46:43;;;;;;;11.9;9.1;;;;;;;10.39;65.23145;940.5356;;;;
2019/04/04 13:49:08;;;;;;;11.2;9.5;;;;;;;10.26;65.76953;940.5874;;;;
2019/04/04 13:51:33;;;;;;;10.6;8.7;;;;;;;10.27;65.48242;940.5215;;;;
2019/04/04 13:53:58;;;;;;;10.5;9.1;;;;;;;10.34;64.48438;940.5075;;;;
2019/04/04 13:56:23;;;;;;;13.8;8.7;;;;;;;10.17;65.21094;940.3651;;;;
2019/04/04 13:58:48;;;;;;;10.5;8.6;;;;;;;10.41;64.84277;940.4384;;;;
2019/04/04 14:01:17;;;;;;;10;8.9;;;;;;;10.38;64.90723;940.4934;;;;
2019/04/04 14:03:42;;;;;;;11.6;9.5;;;;;;;10.19;65.77148;940.6389;;;;
2019/04/04 14:06:11;;;;;;;11.7;9.7;;;;;;;9.75;67.38379;940.8283;;;;
2019/04/04 14:08:36;;;;;;;11.8;9.6;;;;;;;9.79;67.14648;940.887;;;;
2019/04/04 14:11:01;;;;;;;11;9.7;;;;;;;9.77;67.10742;940.9625;;;;
2019/04/04 14:13:26;;;;;;;11.1;8.5;;;;;;;9.71;67.65527;940.902;;;;
2019/04/04 14:15:51;;;;;;;11.3;8.8;;;;;;;9.89;66.64063;940.9928;;;;
2019/04/04 14:18:22;;;;;;;10.6;8.9;;;;;;;9.7;67.14258;940.8911;;;;
2019/04/04 14:20:41;;;;;;;10.1;8.6;;;;;;;9.6;67.81152;941.0137;;;;
2019/04/04 14:23:07;;;;;;;11.9;9.1;;;;;;;9.52;68.26172;941.0542;;;;
2019/04/04 14:25:32;;;;;;;11.4;9.5;;;;;;;9.4;68.94629;940.9512;;;;
2019/04/04 14:27:57;;;;;;;11.4;9.3;;;;;;;9.27;69.10059;940.9514;;;;
2019/04/04 14:30:24;;;;;;;12.3;9.6;;;;;;;9.01;70.14648;940.8357;;;;
2019/04/04 14:32:49;;;;;;;13.6;9.9;;;;;;;9.07;70.68555;940.9308;;;;
2019/04/04 14:35:17;;;;;;;11.9;9.4;;;;;;;9.18;70.24219;941.0005;;;;
2019/04/04 14:37:42;;;;;;;11.2;8.8;;;;;;;9.33;69.06348;941.0072;;;;
2019/04/04 14:40:07;;;;;;;12;9.7;;;;;;;9.43;68.85938;941.0748;;;;
2019/04/04 14:42:35;;;;;;;11.5;8.7;;;;;;;9.43;68.0625;940.9808;;;;